sensor_id;sensor_type;location;lat;lon;timestamp;P1;durP1;ratioP1;P2;durP2;ratioP2
21890;SDS011;11110;52.386;16.940;2022-11-14T00:00:04;167.07;;;84.47;;
21890;SDS011;11110;52.386;16.940;2022-11-14T00:03:09;139.80;;;79.70;;
21890;SDS011;11110;52.386;16.940;2022-11-14T00:05:57;185.80;;;87.73;;
21890;SDS011;11110;52.386;16.940;2022-11-14T00:08:44;159.47;;;85.40;;
21890;SDS011;11110;52.386;16.940;2022-11-14T00:11:33;140.77;;;78.80;;
21890;SDS011;11110;52.386;16.940;2022-11-14T00:14:23;130.10;;;77.57;;
21890;SDS011;11110;52.386;16.940;2022-11-14T00:17:10;146.67;;;81.67;;
21890;SDS011;11110;52.386;16.940;2022-11-14T00:19:57;139.67;;;80.67;;
21890;SDS011;11110;52.386;16.940;2022-11-14T00:22:45;137.57;;;79.83;;
21890;SDS011;11110;52.386;16.940;2022-11-14T00:25:32;141.67;;;80.40;;
21890;SDS011;11110;52.386;16.940;2022-11-14T00:28:20;139.17;;;80.67;;
21890;SDS011;11110;52.386;16.940;2022-11-14T00:31:08;139.33;;;79.77;;
21890;SDS011;11110;52.386;16.940;2022-11-14T00:33:56;141.40;;;81.03;;
21890;SDS011;11110;52.386;16.940;2022-11-14T00:36:42;138.53;;;80.37;;
21890;SDS011;11110;52.386;16.940;2022-11-14T00:39:29;132.53;;;77.07;;
21890;SDS011;11110;52.386;16.940;2022-11-14T00:42:16;144.80;;;82.87;;
21890;SDS011;11110;52.386;16.940;2022-11-14T00:45:05;152.00;;;83.37;;
21890;SDS011;11110;52.386;16.940;2022-11-14T00:47:53;150.40;;;82.70;;
21890;SDS011;11110;52.386;16.940;2022-11-14T00:50:40;145.77;;;81.43;;
21890;SDS011;11110;52.386;16.940;2022-11-14T00:53:27;147.50;;;81.83;;
21890;SDS011;11110;52.386;16.940;2022-11-14T00:56:15;144.73;;;80.53;;
21890;SDS011;11110;52.386;16.940;2022-11-14T00:59:02;136.50;;;77.37;;
21890;SDS011;11110;52.386;16.940;2022-11-14T01:01:50;143.60;;;80.93;;
21890;SDS011;11110;52.386;16.940;2022-11-14T01:04:42;143.57;;;78.50;;
21890;SDS011;11110;52.386;16.940;2022-11-14T01:07:29;138.93;;;80.23;;
21890;SDS011;11110;52.386;16.940;2022-11-14T01:10:16;139.93;;;79.87;;
21890;SDS011;11110;52.386;16.940;2022-11-14T01:13:03;151.40;;;88.07;;
21890;SDS011;11110;52.386;16.940;2022-11-14T01:15:50;143.07;;;80.93;;
21890;SDS011;11110;52.386;16.940;2022-11-14T01:18:40;150.23;;;82.00;;
21890;SDS011;11110;52.386;16.940;2022-11-14T01:21:27;153.07;;;82.50;;
21890;SDS011;11110;52.386;16.940;2022-11-14T01:24:15;148.70;;;81.43;;
21890;SDS011;11110;52.386;16.940;2022-11-14T01:27:01;162.30;;;82.90;;
21890;SDS011;11110;52.386;16.940;2022-11-14T01:29:49;149.70;;;81.97;;
21890;SDS011;11110;52.386;16.940;2022-11-14T01:32:35;133.93;;;78.23;;
21890;SDS011;11110;52.386;16.940;2022-11-14T01:35:24;127.77;;;76.30;;
21890;SDS011;11110;52.386;16.940;2022-11-14T01:38:12;146.40;;;83.47;;
21890;SDS011;11110;52.386;16.940;2022-11-14T01:41:00;147.23;;;85.47;;
21890;SDS011;11110;52.386;16.940;2022-11-14T01:43:47;151.63;;;82.07;;
21890;SDS011;11110;52.386;16.940;2022-11-14T01:46:35;155.90;;;82.20;;
21890;SDS011;11110;52.386;16.940;2022-11-14T01:49:26;155.07;;;83.87;;
21890;SDS011;11110;52.386;16.940;2022-11-14T01:52:22;138.30;;;79.83;;
21890;SDS011;11110;52.386;16.940;2022-11-14T01:55:11;134.67;;;79.10;;
21890;SDS011;11110;52.386;16.940;2022-11-14T01:57:59;141.67;;;79.40;;
21890;SDS011;11110;52.386;16.940;2022-11-14T02:00:46;134.87;;;78.27;;
21890;SDS011;11110;52.386;16.940;2022-11-14T02:03:34;145.70;;;81.03;;
21890;SDS011;11110;52.386;16.940;2022-11-14T02:06:25;163.90;;;86.23;;
21890;SDS011;11110;52.386;16.940;2022-11-14T02:09:16;149.53;;;83.30;;
21890;SDS011;11110;52.386;16.940;2022-11-14T02:12:03;156.37;;;82.40;;
21890;SDS011;11110;52.386;16.940;2022-11-14T02:14:54;161.67;;;84.70;;
21890;SDS011;11110;52.386;16.940;2022-11-14T02:17:43;155.07;;;82.77;;
21890;SDS011;11110;52.386;16.940;2022-11-14T02:20:34;167.97;;;84.73;;
21890;SDS011;11110;52.386;16.940;2022-11-14T02:23:26;148.93;;;82.97;;
21890;SDS011;11110;52.386;16.940;2022-11-14T02:26:15;157.13;;;83.73;;
21890;SDS011;11110;52.386;16.940;2022-11-14T02:29:03;147.00;;;82.20;;
21890;SDS011;11110;52.386;16.940;2022-11-14T02:31:53;147.60;;;82.27;;
21890;SDS011;11110;52.386;16.940;2022-11-14T02:34:40;153.47;;;84.77;;
21890;SDS011;11110;52.386;16.940;2022-11-14T02:37:29;157.37;;;87.90;;
21890;SDS011;11110;52.386;16.940;2022-11-14T02:40:15;158.80;;;84.93;;
21890;SDS011;11110;52.386;16.940;2022-11-14T02:43:02;161.57;;;85.97;;
21890;SDS011;11110;52.386;16.940;2022-11-14T02:45:50;141.93;;;81.80;;
21890;SDS011;11110;52.386;16.940;2022-11-14T02:48:37;144.43;;;81.60;;
21890;SDS011;11110;52.386;16.940;2022-11-14T02:51:23;168.57;;;86.03;;
21890;SDS011;11110;52.386;16.940;2022-11-14T02:54:12;175.23;;;86.37;;
21890;SDS011;11110;52.386;16.940;2022-11-14T02:56:59;167.60;;;85.53;;
21890;SDS011;11110;52.386;16.940;2022-11-14T02:59:46;177.40;;;88.33;;
21890;SDS011;11110;52.386;16.940;2022-11-14T03:02:33;158.97;;;92.50;;
21890;SDS011;11110;52.386;16.940;2022-11-14T03:05:20;164.73;;;89.93;;
21890;SDS011;11110;52.386;16.940;2022-11-14T03:08:07;166.67;;;89.37;;
21890;SDS011;11110;52.386;16.940;2022-11-14T03:11:01;169.40;;;88.83;;
21890;SDS011;11110;52.386;16.940;2022-11-14T03:13:49;172.33;;;88.43;;
21890;SDS011;11110;52.386;16.940;2022-11-14T03:16:36;181.57;;;91.47;;
21890;SDS011;11110;52.386;16.940;2022-11-14T03:19:23;170.30;;;87.17;;
21890;SDS011;11110;52.386;16.940;2022-11-14T03:22:10;191.33;;;92.83;;
21890;SDS011;11110;52.386;16.940;2022-11-14T03:24:56;175.47;;;89.30;;
21890;SDS011;11110;52.386;16.940;2022-11-14T03:27:45;178.87;;;88.33;;
21890;SDS011;11110;52.386;16.940;2022-11-14T03:30:32;178.23;;;87.10;;
21890;SDS011;11110;52.386;16.940;2022-11-14T03:33:19;191.30;;;90.17;;
21890;SDS011;11110;52.386;16.940;2022-11-14T03:36:06;180.20;;;87.90;;
21890;SDS011;11110;52.386;16.940;2022-11-14T03:38:54;188.07;;;89.67;;
21890;SDS011;11110;52.386;16.940;2022-11-14T03:41:40;192.70;;;89.23;;
21890;SDS011;11110;52.386;16.940;2022-11-14T03:44:29;188.40;;;88.97;;
21890;SDS011;11110;52.386;16.940;2022-11-14T03:47:16;186.70;;;89.40;;
21890;SDS011;11110;52.386;16.940;2022-11-14T03:50:03;175.10;;;88.20;;
21890;SDS011;11110;52.386;16.940;2022-11-14T03:52:50;189.20;;;88.97;;
21890;SDS011;11110;52.386;16.940;2022-11-14T03:55:38;180.47;;;89.13;;
21890;SDS011;11110;52.386;16.940;2022-11-14T03:58:24;183.53;;;88.53;;
21890;SDS011;11110;52.386;16.940;2022-11-14T04:01:13;185.10;;;86.13;;
21890;SDS011;11110;52.386;16.940;2022-11-14T04:04:01;196.60;;;101.00;;
21890;SDS011;11110;52.386;16.940;2022-11-14T04:06:47;195.97;;;88.47;;
21890;SDS011;11110;52.386;16.940;2022-11-14T04:09:35;190.07;;;89.33;;
21890;SDS011;11110;52.386;16.940;2022-11-14T04:12:22;192.47;;;89.27;;
21890;SDS011;11110;52.386;16.940;2022-11-14T04:15:09;190.07;;;86.70;;
21890;SDS011;11110;52.386;16.940;2022-11-14T04:17:58;184.23;;;86.50;;
21890;SDS011;11110;52.386;16.940;2022-11-14T04:20:45;188.10;;;86.80;;
21890;SDS011;11110;52.386;16.940;2022-11-14T04:23:32;187.97;;;88.03;;
21890;SDS011;11110;52.386;16.940;2022-11-14T04:26:19;188.07;;;88.87;;
21890;SDS011;11110;52.386;16.940;2022-11-14T04:29:06;185.17;;;85.17;;
21890;SDS011;11110;52.386;16.940;2022-11-14T04:31:53;183.40;;;88.70;;
21890;SDS011;11110;52.386;16.940;2022-11-14T04:34:42;189.43;;;86.10;;
21890;SDS011;11110;52.386;16.940;2022-11-14T04:37:29;190.63;;;86.93;;
21890;SDS011;11110;52.386;16.940;2022-11-14T04:40:16;190.30;;;91.23;;
21890;SDS011;11110;52.386;16.940;2022-11-14T04:43:03;177.57;;;84.40;;
21890;SDS011;11110;52.386;16.940;2022-11-14T04:45:50;179.43;;;84.13;;
21890;SDS011;11110;52.386;16.940;2022-11-14T04:48:37;187.03;;;86.50;;
21890;SDS011;11110;52.386;16.940;2022-11-14T04:51:25;186.77;;;86.07;;
21890;SDS011;11110;52.386;16.940;2022-11-14T04:54:12;191.83;;;84.80;;
21890;SDS011;11110;52.386;16.940;2022-11-14T04:56:59;187.07;;;86.97;;
21890;SDS011;11110;52.386;16.940;2022-11-14T04:59:46;179.20;;;85.33;;
21890;SDS011;11110;52.386;16.940;2022-11-14T05:02:33;187.50;;;83.60;;
21890;SDS011;11110;52.386;16.940;2022-11-14T05:05:20;180.00;;;81.73;;
21890;SDS011;11110;52.386;16.940;2022-11-14T05:08:09;171.43;;;82.87;;
21890;SDS011;11110;52.386;16.940;2022-11-14T05:10:56;186.10;;;84.80;;
21890;SDS011;11110;52.386;16.940;2022-11-14T05:13:43;198.70;;;88.07;;
21890;SDS011;11110;52.386;16.940;2022-11-14T05:16:30;187.30;;;85.80;;
21890;SDS011;11110;52.386;16.940;2022-11-14T05:19:17;192.90;;;83.90;;
21890;SDS011;11110;52.386;16.940;2022-11-14T05:22:04;195.23;;;87.13;;
21890;SDS011;11110;52.386;16.940;2022-11-14T05:24:53;192.33;;;83.83;;
21890;SDS011;11110;52.386;16.940;2022-11-14T05:27:39;202.83;;;86.33;;
21890;SDS011;11110;52.386;16.940;2022-11-14T05:30:26;195.07;;;88.83;;
21890;SDS011;11110;52.386;16.940;2022-11-14T05:33:13;201.93;;;89.63;;
21890;SDS011;11110;52.386;16.940;2022-11-14T05:36:01;191.17;;;86.17;;
21890;SDS011;11110;52.386;16.940;2022-11-14T05:38:48;193.67;;;88.63;;
21890;SDS011;11110;52.386;16.940;2022-11-14T05:41:37;193.03;;;89.00;;
21890;SDS011;11110;52.386;16.940;2022-11-14T05:44:23;184.97;;;84.73;;
21890;SDS011;11110;52.386;16.940;2022-11-14T05:47:11;186.20;;;87.53;;
21890;SDS011;11110;52.386;16.940;2022-11-14T05:49:58;205.20;;;93.97;;
21890;SDS011;11110;52.386;16.940;2022-11-14T05:52:45;239.97;;;112.10;;
21890;SDS011;11110;52.386;16.940;2022-11-14T05:55:31;218.83;;;110.53;;
21890;SDS011;11110;52.386;16.940;2022-11-14T05:58:20;232.27;;;118.03;;
21890;SDS011;11110;52.386;16.940;2022-11-14T06:01:08;219.47;;;106.73;;
21890;SDS011;11110;52.386;16.940;2022-11-14T06:03:57;218.83;;;108.87;;
21890;SDS011;11110;52.386;16.940;2022-11-14T06:06:44;215.10;;;101.87;;
21890;SDS011;11110;52.386;16.940;2022-11-14T06:09:31;194.33;;;90.77;;
21890;SDS011;11110;52.386;16.940;2022-11-14T06:12:18;186.00;;;91.60;;
21890;SDS011;11110;52.386;16.940;2022-11-14T06:15:07;187.97;;;88.97;;
21890;SDS011;11110;52.386;16.940;2022-11-14T06:17:54;188.13;;;87.70;;
21890;SDS011;11110;52.386;16.940;2022-11-14T06:20:43;186.27;;;88.83;;
21890;SDS011;11110;52.386;16.940;2022-11-14T06:23:30;180.37;;;86.33;;
21890;SDS011;11110;52.386;16.940;2022-11-14T06:26:19;191.30;;;89.90;;
21890;SDS011;11110;52.386;16.940;2022-11-14T06:29:08;197.47;;;89.80;;
21890;SDS011;11110;52.386;16.940;2022-11-14T06:31:56;191.67;;;89.13;;
21890;SDS011;11110;52.386;16.940;2022-11-14T06:34:43;182.10;;;85.13;;
21890;SDS011;11110;52.386;16.940;2022-11-14T06:37:30;190.80;;;87.33;;
21890;SDS011;11110;52.386;16.940;2022-11-14T06:40:17;187.17;;;89.03;;
21890;SDS011;11110;52.386;16.940;2022-11-14T06:43:05;183.97;;;86.67;;
21890;SDS011;11110;52.386;16.940;2022-11-14T06:45:52;186.27;;;86.47;;
21890;SDS011;11110;52.386;16.940;2022-11-14T06:48:41;190.73;;;88.07;;
21890;SDS011;11110;52.386;16.940;2022-11-14T06:51:29;182.27;;;86.57;;
21890;SDS011;11110;52.386;16.940;2022-11-14T06:54:16;178.33;;;83.87;;
21890;SDS011;11110;52.386;16.940;2022-11-14T06:57:03;180.47;;;85.73;;
21890;SDS011;11110;52.386;16.940;2022-11-14T06:59:50;177.73;;;85.40;;
21890;SDS011;11110;52.386;16.940;2022-11-14T07:02:37;179.60;;;84.20;;
21890;SDS011;11110;52.386;16.940;2022-11-14T07:05:25;185.93;;;85.80;;
21890;SDS011;11110;52.386;16.940;2022-11-14T07:08:12;181.00;;;84.97;;
21890;SDS011;11110;52.386;16.940;2022-11-14T07:11:06;178.67;;;83.60;;
21890;SDS011;11110;52.386;16.940;2022-11-14T07:13:54;184.10;;;83.93;;
21890;SDS011;11110;52.386;16.940;2022-11-14T07:16:43;175.00;;;84.00;;
21890;SDS011;11110;52.386;16.940;2022-11-14T07:19:31;175.20;;;82.43;;
21890;SDS011;11110;52.386;16.940;2022-11-14T07:22:19;174.03;;;84.53;;
21890;SDS011;11110;52.386;16.940;2022-11-14T07:25:07;190.33;;;108.13;;
21890;SDS011;11110;52.386;16.940;2022-11-14T07:27:55;170.93;;;85.03;;
21890;SDS011;11110;52.386;16.940;2022-11-14T07:30:43;185.20;;;83.30;;
21890;SDS011;11110;52.386;16.940;2022-11-14T07:33:30;178.53;;;84.40;;
21890;SDS011;11110;52.386;16.940;2022-11-14T07:36:17;173.70;;;83.63;;
21890;SDS011;11110;52.386;16.940;2022-11-14T07:39:06;177.77;;;81.67;;
21890;SDS011;11110;52.386;16.940;2022-11-14T07:41:53;176.03;;;80.97;;
21890;SDS011;11110;52.386;16.940;2022-11-14T07:44:40;177.33;;;82.57;;
21890;SDS011;11110;52.386;16.940;2022-11-14T07:47:26;171.23;;;82.37;;
21890;SDS011;11110;52.386;16.940;2022-11-14T07:50:14;185.63;;;88.33;;
21890;SDS011;11110;52.386;16.940;2022-11-14T07:53:04;167.90;;;79.60;;
21890;SDS011;11110;52.386;16.940;2022-11-14T07:55:53;177.73;;;85.33;;
21890;SDS011;11110;52.386;16.940;2022-11-14T07:58:40;169.37;;;82.10;;
21890;SDS011;11110;52.386;16.940;2022-11-14T08:01:28;168.27;;;78.07;;
21890;SDS011;11110;52.386;16.940;2022-11-14T08:04:15;176.87;;;82.50;;
21890;SDS011;11110;52.386;16.940;2022-11-14T08:07:02;174.20;;;82.93;;
21890;SDS011;11110;52.386;16.940;2022-11-14T08:09:50;170.90;;;81.37;;
21890;SDS011;11110;52.386;16.940;2022-11-14T08:12:38;165.70;;;82.10;;
21890;SDS011;11110;52.386;16.940;2022-11-14T08:15:25;174.73;;;83.77;;
21890;SDS011;11110;52.386;16.940;2022-11-14T08:18:13;168.73;;;81.17;;
21890;SDS011;11110;52.386;16.940;2022-11-14T08:21:02;176.00;;;82.83;;
21890;SDS011;11110;52.386;16.940;2022-11-14T08:23:49;172.07;;;86.30;;
21890;SDS011;11110;52.386;16.940;2022-11-14T08:26:36;167.80;;;82.67;;
21890;SDS011;11110;52.386;16.940;2022-11-14T08:29:25;175.03;;;82.13;;
21890;SDS011;11110;52.386;16.940;2022-11-14T08:32:12;176.17;;;84.53;;
21890;SDS011;11110;52.386;16.940;2022-11-14T08:34:59;180.10;;;83.97;;
21890;SDS011;11110;52.386;16.940;2022-11-14T08:37:46;177.03;;;83.30;;
21890;SDS011;11110;52.386;16.940;2022-11-14T08:40:34;181.47;;;88.07;;
21890;SDS011;11110;52.386;16.940;2022-11-14T08:43:21;164.20;;;88.93;;
21890;SDS011;11110;52.386;16.940;2022-11-14T08:46:09;158.73;;;81.03;;
21890;SDS011;11110;52.386;16.940;2022-11-14T08:48:56;167.73;;;83.13;;
21890;SDS011;11110;52.386;16.940;2022-11-14T08:51:44;176.50;;;85.77;;
21890;SDS011;11110;52.386;16.940;2022-11-14T08:54:31;180.27;;;94.47;;
21890;SDS011;11110;52.386;16.940;2022-11-14T08:57:18;176.23;;;88.40;;
21890;SDS011;11110;52.386;16.940;2022-11-14T09:00:06;178.07;;;89.93;;
21890;SDS011;11110;52.386;16.940;2022-11-14T09:02:55;177.93;;;86.33;;
21890;SDS011;11110;52.386;16.940;2022-11-14T09:05:42;179.20;;;86.63;;
21890;SDS011;11110;52.386;16.940;2022-11-14T09:08:29;183.03;;;86.60;;
21890;SDS011;11110;52.386;16.940;2022-11-14T09:11:17;180.90;;;84.90;;
21890;SDS011;11110;52.386;16.940;2022-11-14T09:14:04;174.03;;;82.40;;
21890;SDS011;11110;52.386;16.940;2022-11-14T09:16:51;175.60;;;81.77;;
21890;SDS011;11110;52.386;16.940;2022-11-14T09:19:39;174.20;;;81.37;;
21890;SDS011;11110;52.386;16.940;2022-11-14T09:22:26;180.00;;;85.13;;
21890;SDS011;11110;52.386;16.940;2022-11-14T09:25:13;176.43;;;84.63;;
21890;SDS011;11110;52.386;16.940;2022-11-14T09:28:02;175.27;;;81.33;;
21890;SDS011;11110;52.386;16.940;2022-11-14T09:30:51;176.37;;;81.80;;
21890;SDS011;11110;52.386;16.940;2022-11-14T09:33:37;174.37;;;82.73;;
21890;SDS011;11110;52.386;16.940;2022-11-14T09:36:26;174.97;;;83.10;;
21890;SDS011;11110;52.386;16.940;2022-11-14T09:39:12;175.67;;;82.20;;
21890;SDS011;11110;52.386;16.940;2022-11-14T09:42:03;175.17;;;82.53;;
21890;SDS011;11110;52.386;16.940;2022-11-14T09:45:02;172.33;;;82.20;;
21890;SDS011;11110;52.386;16.940;2022-11-14T09:47:59;170.20;;;80.13;;
21890;SDS011;11110;52.386;16.940;2022-11-14T09:50:52;176.83;;;85.90;;
21890;SDS011;11110;52.386;16.940;2022-11-14T09:53:54;176.83;;;84.83;;
21890;SDS011;11110;52.386;16.940;2022-11-14T09:56:48;173.77;;;84.23;;
21890;SDS011;11110;52.386;16.940;2022-11-14T09:59:36;177.43;;;85.33;;
21890;SDS011;11110;52.386;16.940;2022-11-14T10:02:26;185.27;;;105.37;;
21890;SDS011;11110;52.386;16.940;2022-11-14T10:05:34;170.53;;;87.80;;
21890;SDS011;11110;52.386;16.940;2022-11-14T10:08:33;172.67;;;88.83;;
21890;SDS011;11110;52.386;16.940;2022-11-14T10:11:37;176.00;;;90.60;;
21890;SDS011;11110;52.386;16.940;2022-11-14T10:17:41;179.97;;;86.43;;
21890;SDS011;11110;52.386;16.940;2022-11-14T10:20:38;177.90;;;84.27;;
21890;SDS011;11110;52.386;16.940;2022-11-14T10:23:32;172.23;;;87.10;;
21890;SDS011;11110;52.386;16.940;2022-11-14T10:26:29;173.67;;;102.73;;
21890;SDS011;11110;52.386;16.940;2022-11-14T10:29:30;162.83;;;82.37;;
21890;SDS011;11110;52.386;16.940;2022-11-14T10:32:31;160.07;;;85.20;;
21890;SDS011;11110;52.386;16.940;2022-11-14T10:35:42;166.50;;;81.17;;
21890;SDS011;11110;52.386;16.940;2022-11-14T10:38:35;168.60;;;85.07;;
21890;SDS011;11110;52.386;16.940;2022-11-14T10:41:27;169.40;;;85.00;;
21890;SDS011;11110;52.386;16.940;2022-11-14T10:44:37;163.17;;;84.10;;
21890;SDS011;11110;52.386;16.940;2022-11-14T10:47:29;162.57;;;81.13;;
21890;SDS011;11110;52.386;16.940;2022-11-14T10:50:24;152.57;;;80.80;;
21890;SDS011;11110;52.386;16.940;2022-11-14T10:53:17;151.43;;;81.87;;
21890;SDS011;11110;52.386;16.940;2022-11-14T10:56:10;154.63;;;80.30;;
21890;SDS011;11110;52.386;16.940;2022-11-14T10:58:58;153.40;;;77.73;;
21890;SDS011;11110;52.386;16.940;2022-11-14T11:01:52;155.80;;;81.27;;
21890;SDS011;11110;52.386;16.940;2022-11-14T11:04:40;149.43;;;81.03;;
21890;SDS011;11110;52.386;16.940;2022-11-14T11:07:28;155.27;;;79.60;;
21890;SDS011;11110;52.386;16.940;2022-11-14T11:10:34;166.17;;;80.70;;
21890;SDS011;11110;52.386;16.940;2022-11-14T11:13:49;140.77;;;80.63;;
21890;SDS011;11110;52.386;16.940;2022-11-14T11:16:39;423.90;;;385.63;;
21890;SDS011;11110;52.386;16.940;2022-11-14T11:19:28;155.20;;;86.13;;
21890;SDS011;11110;52.386;16.940;2022-11-14T11:22:28;45.70;;;21.20;;
21890;SDS011;11110;52.386;16.940;2022-11-14T11:25:21;37.90;;;20.47;;
21890;SDS011;11110;52.386;16.940;2022-11-14T11:28:11;43.50;;;20.57;;
21890;SDS011;11110;52.386;16.940;2022-11-14T11:30:59;42.37;;;21.10;;
21890;SDS011;11110;52.386;16.940;2022-11-14T11:33:47;42.73;;;23.73;;
21890;SDS011;11110;52.386;16.940;2022-11-14T11:36:38;39.37;;;21.43;;
21890;SDS011;11110;52.386;16.940;2022-11-14T11:39:29;35.67;;;21.20;;
21890;SDS011;11110;52.386;16.940;2022-11-14T11:42:20;43.10;;;23.20;;
21890;SDS011;11110;52.386;16.940;2022-11-14T11:45:32;37.50;;;21.10;;
21890;SDS011;11110;52.386;16.940;2022-11-14T11:48:21;43.67;;;22.30;;
21890;SDS011;11110;52.386;16.940;2022-11-14T11:51:12;41.50;;;22.37;;
21890;SDS011;11110;52.386;16.940;2022-11-14T11:54:06;45.00;;;23.23;;
21890;SDS011;11110;52.386;16.940;2022-11-14T11:57:04;38.93;;;22.03;;
21890;SDS011;11110;52.386;16.940;2022-11-14T12:00:12;44.57;;;24.77;;
21890;SDS011;11110;52.386;16.940;2022-11-14T12:03:04;37.77;;;21.53;;
21890;SDS011;11110;52.386;16.940;2022-11-14T12:06:01;40.83;;;22.37;;
21890;SDS011;11110;52.386;16.940;2022-11-14T12:09:05;41.20;;;21.93;;
21890;SDS011;11110;52.386;16.940;2022-11-14T12:12:00;43.10;;;22.37;;
21890;SDS011;11110;52.386;16.940;2022-11-14T12:14:54;39.77;;;21.53;;
21890;SDS011;11110;52.386;16.940;2022-11-14T12:17:54;36.67;;;20.67;;
21890;SDS011;11110;52.386;16.940;2022-11-14T12:21:11;42.80;;;23.47;;
21890;SDS011;11110;52.386;16.940;2022-11-14T12:24:16;41.97;;;23.03;;
21890;SDS011;11110;52.386;16.940;2022-11-14T12:27:33;36.53;;;20.80;;
21890;SDS011;11110;52.386;16.940;2022-11-14T12:30:34;34.20;;;19.10;;
21890;SDS011;11110;52.386;16.940;2022-11-14T12:33:24;40.30;;;20.87;;
21890;SDS011;11110;52.386;16.940;2022-11-14T12:36:17;36.43;;;20.23;;
21890;SDS011;11110;52.386;16.940;2022-11-14T12:39:04;35.27;;;19.90;;
21890;SDS011;11110;52.386;16.940;2022-11-14T12:42:00;35.30;;;20.53;;
21890;SDS011;11110;52.386;16.940;2022-11-14T12:44:48;39.60;;;20.67;;
21890;SDS011;11110;52.386;16.940;2022-11-14T12:47:35;33.77;;;20.63;;
21890;SDS011;11110;52.386;16.940;2022-11-14T12:50:58;34.57;;;20.63;;
21890;SDS011;11110;52.386;16.940;2022-11-14T12:53:45;38.93;;;22.20;;
21890;SDS011;11110;52.386;16.940;2022-11-14T12:56:44;33.43;;;20.13;;
21890;SDS011;11110;52.386;16.940;2022-11-14T12:59:44;33.10;;;19.83;;
21890;SDS011;11110;52.386;16.940;2022-11-14T13:06:09;35.57;;;19.37;;
21890;SDS011;11110;52.386;16.940;2022-11-14T13:09:09;40.97;;;22.40;;
21890;SDS011;11110;52.386;16.940;2022-11-14T13:12:26;34.43;;;19.93;;
21890;SDS011;11110;52.386;16.940;2022-11-14T13:15:34;33.23;;;20.63;;
21890;SDS011;11110;52.386;16.940;2022-11-14T13:18:50;32.03;;;19.73;;
21890;SDS011;11110;52.386;16.940;2022-11-14T13:22:16;38.83;;;22.17;;
21890;SDS011;11110;52.386;16.940;2022-11-14T13:25:24;31.87;;;19.10;;
21890;SDS011;11110;52.386;16.940;2022-11-14T13:31:44;37.67;;;21.13;;
21890;SDS011;11110;52.386;16.940;2022-11-14T13:34:38;36.20;;;21.23;;
21890;SDS011;11110;52.386;16.940;2022-11-14T13:37:41;35.40;;;21.55;;
21890;SDS011;11110;52.386;16.940;2022-11-14T13:40:43;37.30;;;21.25;;
21890;SDS011;11110;52.386;16.940;2022-11-14T13:43:42;41.38;;;24.85;;
21890;SDS011;11110;52.386;16.940;2022-11-14T13:46:51;40.20;;;23.33;;
21890;SDS011;11110;52.386;16.940;2022-11-14T13:49:58;35.97;;;20.93;;
21890;SDS011;11110;52.386;16.940;2022-11-14T13:52:48;37.10;;;20.48;;
21890;SDS011;11110;52.386;16.940;2022-11-14T13:55:37;36.23;;;20.87;;
21890;SDS011;11110;52.386;16.940;2022-11-14T13:58:54;32.95;;;21.05;;
21890;SDS011;11110;52.386;16.940;2022-11-14T14:01:58;33.70;;;20.02;;
21890;SDS011;11110;52.386;16.940;2022-11-14T14:05:03;38.40;;;21.63;;
21890;SDS011;11110;52.386;16.940;2022-11-14T14:08:05;37.63;;;21.37;;
21890;SDS011;11110;52.386;16.940;2022-11-14T14:11:03;37.17;;;21.60;;
21890;SDS011;11110;52.386;16.940;2022-11-14T14:14:03;37.53;;;21.50;;
21890;SDS011;11110;52.386;16.940;2022-11-14T14:17:01;34.72;;;21.08;;
21890;SDS011;11110;52.386;16.940;2022-11-14T14:20:00;35.43;;;21.03;;
21890;SDS011;11110;52.386;16.940;2022-11-14T14:23:05;38.97;;;22.13;;
21890;SDS011;11110;52.386;16.940;2022-11-14T14:26:02;44.33;;;25.00;;
21890;SDS011;11110;52.386;16.940;2022-11-14T14:29:00;37.45;;;21.27;;
21890;SDS011;11110;52.386;16.940;2022-11-14T14:32:08;34.47;;;22.23;;
21890;SDS011;11110;52.386;16.940;2022-11-14T14:34:57;40.53;;;22.33;;
21890;SDS011;11110;52.386;16.940;2022-11-14T14:37:48;34.88;;;19.92;;
21890;SDS011;11110;52.386;16.940;2022-11-14T14:40:36;34.33;;;20.27;;
21890;SDS011;11110;52.386;16.940;2022-11-14T14:43:27;37.60;;;21.08;;
21890;SDS011;11110;52.386;16.940;2022-11-14T14:46:24;36.70;;;19.93;;
21890;SDS011;11110;52.386;16.940;2022-11-14T14:49:18;33.07;;;19.53;;
21890;SDS011;11110;52.386;16.940;2022-11-14T14:52:18;34.33;;;20.00;;
21890;SDS011;11110;52.386;16.940;2022-11-14T14:55:16;34.03;;;20.30;;
21890;SDS011;11110;52.386;16.940;2022-11-14T14:58:13;33.23;;;19.80;;
21890;SDS011;11110;52.386;16.940;2022-11-14T15:01:08;32.90;;;20.00;;
21890;SDS011;11110;52.386;16.940;2022-11-14T15:04:00;37.77;;;20.50;;
21890;SDS011;11110;52.386;16.940;2022-11-14T15:06:51;38.60;;;23.10;;
21890;SDS011;11110;52.386;16.940;2022-11-14T15:09:49;34.77;;;22.00;;
21890;SDS011;11110;52.386;16.940;2022-11-14T15:12:37;40.73;;;22.33;;
21890;SDS011;11110;52.386;16.940;2022-11-14T15:15:26;36.23;;;21.60;;
21890;SDS011;11110;52.386;16.940;2022-11-14T15:18:15;38.93;;;21.93;;
21890;SDS011;11110;52.386;16.940;2022-11-14T15:21:08;37.87;;;20.60;;
21890;SDS011;11110;52.386;16.940;2022-11-14T15:24:01;38.37;;;21.43;;
21890;SDS011;11110;52.386;16.940;2022-11-14T15:26:58;37.77;;;21.17;;
21890;SDS011;11110;52.386;16.940;2022-11-14T15:29:50;33.80;;;19.10;;
21890;SDS011;11110;52.386;16.940;2022-11-14T15:32:38;36.97;;;19.87;;
21890;SDS011;11110;52.386;16.940;2022-11-14T15:35:34;37.13;;;20.37;;
21890;SDS011;11110;52.386;16.940;2022-11-14T15:38:22;38.63;;;20.70;;
21890;SDS011;11110;52.386;16.940;2022-11-14T15:41:30;40.67;;;21.63;;
21890;SDS011;11110;52.386;16.940;2022-11-14T15:44:28;35.43;;;19.43;;
21890;SDS011;11110;52.386;16.940;2022-11-14T15:47:19;36.83;;;21.03;;
21890;SDS011;11110;52.386;16.940;2022-11-14T15:50:21;37.73;;;20.80;;
21890;SDS011;11110;52.386;16.940;2022-11-14T15:53:16;37.97;;;21.27;;
21890;SDS011;11110;52.386;16.940;2022-11-14T15:56:09;44.50;;;23.30;;
21890;SDS011;11110;52.386;16.940;2022-11-14T15:58:59;43.00;;;23.07;;
21890;SDS011;11110;52.386;16.940;2022-11-14T16:01:47;41.93;;;21.60;;
21890;SDS011;11110;52.386;16.940;2022-11-14T16:04:39;38.90;;;21.03;;
21890;SDS011;11110;52.386;16.940;2022-11-14T16:07:32;38.07;;;21.83;;
21890;SDS011;11110;52.386;16.940;2022-11-14T16:10:19;281.40;;;190.57;;
21890;SDS011;11110;52.386;16.940;2022-11-14T16:13:08;59.10;;;24.90;;
21890;SDS011;11110;52.386;16.940;2022-11-14T16:15:57;57.23;;;24.17;;
21890;SDS011;11110;52.386;16.940;2022-11-14T16:18:43;54.53;;;22.50;;
21890;SDS011;11110;52.386;16.940;2022-11-14T16:21:30;51.37;;;23.37;;
21890;SDS011;11110;52.386;16.940;2022-11-14T16:24:18;52.67;;;23.67;;